x

Virginia Beach 64 Nm East Of Virginia Beach, Va (44014) Wave Buoy

9:50 - Wed 27th Aug 2014 All times are EDT. -4 hours from GMT.

  • Sig Wave height 9.8ft
  • Peak Period 13s
  • Wind
    11mph, 16mph gusts
  • Sea Temp 78°f
  • Luft Temp 76°f
  • Sea Pressure 1012.1mb
  • Virginia Beach 64 Nm East Of Virginia Beach, Va
  • Virginia Beach 64 Nm East Of Virginia Beach, Va

More Historic Weather Station data

Upgrade to MSW Pro to gain access to the past 30 days of data for over 8000 Wavebouys and Weather Stations around the globe.

Join Pro

Comparision Forecast

View Surf forecast
   
Mi 08/27 9:50 10ft 13s 11 16 mph 1012.1mb 78f 76f
8:50 9ft 13s 13 18 mph 1012.2mb 78f 76f
7:50 9ft 11s 16 20 mph 1012.4mb 78f 75f
6:50 9ft 13s 16 20 mph 1012.7mb 78f 76f
5:50 8.5ft 13s 18 22 mph 1012.7mb 78f 76f
4:50 8ft 13s 16 20 mph 1012.8mb 78f 77f
3:50 7.5ft 14s 18 20 mph 1013mb 78f 77f
2:50 8ft 14s 16 20 mph 1013.7mb 78f 77f
12:50 7ft 15s 18 22 mph 1014.7mb 78f 77f
11:50 7ft 11s 18 20 mph 1015.5mb 78f 77f
10:50 7ft 13s 20 22 mph 1015.7mb 78f 77f
9:50 7ft 11s 20 22 mph 1015.7mb 78f 77f
8:50 6.5ft 13s 18 22 mph 1015.7mb 78f 77f
7:50 6.5ft 11s 18 20 mph 1015.7mb 78f 77f
6:50 5.5ft 11s 16 20 mph 1015.4mb 78f 77f
5:50 6ft 12s 16 18 mph 1015mb 78f 77f
4:50 5.5ft 12s 16 18 mph 1014.9mb 78f 77f
3:50 6ft 12s 18
mph
1014.9mb 78f 76f
2:50 5ft 13s 16 18 mph 1015.5mb 78f 77f
1:50 5.5ft 9s 18 20 mph 1016.2mb 78f 77f
12:50 5.5ft 9s 18 20 mph 1016.6mb 78f 77f
Di 08/26 11:50 5.5ft 9s 16 18 mph 1017mb 78f 77f
10:50 5ft 8s 16 18 mph 1017.5mb 78f 77f
9:50 5ft 10s 18 20 mph 1017.4mb 78f 77f
8:50 5.5ft 9s 16 20 mph 1017mb 78f 77f
7:50 6ft 9s 16 20 mph 1017.4mb 78f 77f
6:50 5.5ft 10s 16 18 mph 1017.6mb 78f 77f
5:50 5.5ft 9s 16 18 mph 1017.8mb 78f 77f
4:50 5ft 9s 16 20 mph 1018mb 78f 77f
3:50 5ft 10s 18 20 mph 1018.2mb 78f 77f
2:50 5.5ft 8s 18 20 mph 1018.2mb 78f 76f
1:50 5ft 9s 16 20 mph 1018.8mb 78f 76f
12:50 5ft 9s 16 18 mph 1019mb 78f 76f
11:50 5ft 9s 16 20 mph 1018.9mb 78f 75f
10:50 5ft 8s 18 20 mph 1018.8mb 78f 75f
9:50 5ft 9s 16 20 mph 1018.8mb 78f 75f
8:50 5.5ft 9s 16 20 mph 1018.7mb 78f 75f
7:50 5.5ft 8s 16 18 mph 1018.4mb 78f 75f
6:50 5.5ft 9s 16 20 mph 1018mb 78f 75f
5:50 6ft 8s 16 20 mph 1017.7mb 78f 75f
4:50 6ft 9s 18 20 mph 1017.4mb 78f 75f
3:50 6ft 7s 18 20 mph 1017.5mb 78f 75f
2:50 6ft 9s 18 22 mph 1017.7mb 78f 75f
1:50 6ft 9s 20 25 mph 1017.8mb 78f 75f
12:50 6ft 9s 20 22 mph 1018mb 78f 75f
Mo 08/25 11:50 6ft 9s 20 25 mph 1017.9mb 78f 76f
10:50 6.5ft 9s 18 22 mph 1017.9mb 78f 76f
9:50 6ft 9s 18 25 mph 1017.8mb 78f 75f
8:50 6ft 8s 18 22 mph 1017.7mb 78f 75f
7:50 6ft 9s 18 20 mph 1017.6mb 78f 75f
6:50 5.5ft 9s 18 20 mph 1017.2mb 78f 75f
5:50 6ft 9s 18 22 mph 1017.2mb 78f 76f
4:50 6ft 8s 20 22 mph 1017.3mb 78f 76f
3:50 6ft 7s 18 20 mph 1017.5mb 78f 76f
2:50 6.5ft 7s 20 22 mph 1017.7mb 78f 75f
1:50 6ft 7s 20 25 mph 1017.9mb 78f 75f
12:50 6.5ft 8s 20 25 mph 1018.2mb 78f 74f
11:50 7ft 10s 20 27 mph 1018.3mb 78f 74f
10:50 6.5ft 8s 22 27 mph 1017.9mb 78f 75f
9:50 6.5ft 8s 22 27 mph 1017.4mb 78f 74f
8:50 7ft 8s 22 27 mph 1016.8mb 78f 75f
7:50 7ft 9s 25 29 mph 1016.6mb 78f 74f
6:50 7ft 9s 25 29 mph 1016.4mb 78f 75f
5:50 7ft 9s 22 27 mph 1016.4mb 78f 75f
4:50 7ft 10s 22 27 mph 1015.9mb 77f 75f
3:50 7ft 9s 20 25 mph 1016.1mb 77f 74f
2:50 7ft 7s 22 27 mph 1016.4mb 78f 75f
1:50 7ft 8s 22 27 mph 1016.7mb 78f 75f
12:50 7ft 8s 22 27 mph 1016.5mb 78f 75f
So 08/24 11:50 7ft 8s 22 27 mph 1016.4mb 78f 75f
10:50 7ft 8s 22 27 mph 1016.3mb 78f 75f
9:50 7ft 7s 20 25 mph 1016.6mb 78f 74f
8:50 7ft 8s 20 25 mph 1016.3mb 77f 74f
7:50 7ft 7s 25 27 mph 1015.9mb 77f 74f
6:50 7.5ft 7s 25 29 mph 1015.9mb 77f 74f
5:50 7ft 7s 27 31 mph 1015.7mb 77f 74f
4:50 7ft 7s 25 29 mph 1016mb 77f 74f
3:50 7ft 6s 25 31 mph 1016.2mb 77f 74f
2:50 6.5ft 7s 25 29 mph 1016.5mb 77f 74f
1:50 6.5ft 8s 20 25 mph 1016.7mb 76f 75f
12:50 6ft 8s 22 25 mph 1016.5mb 76f 74f
11:50 6ft 7s 25 29 mph 1016.4mb 76f 74f
10:50 6ft 7s 25 29 mph 1016.2mb 76f 74f
9:50 7ft 7s 20 25 mph 1016.1mb 76f 74f
8:50 6.5ft 6s 22 25 mph 1015.9mb 76f 74f
7:50 6ft 7s 22 27 mph 1015.4mb 76f 74f
6:50 6ft 7s 25 29 mph 1015.2mb 76f 74f
5:50 6ft 8s 22 27 mph 1014.3mb 77f 74f
4:50 5.5ft 8s 22 27 mph 1014.2mb 77f 75f
3:50 6ft 6s 22 27 mph 1014.4mb 77f 75f
2:50 5.5ft 7s 22 27 mph 1014.6mb 77f 75f